createdAt,value
2022-12-18T00:01:28.636Z,-0.85
2022-12-18T00:03:56.681Z,-0.72
2022-12-18T00:06:25.351Z,-1.14
2022-12-18T00:08:52.709Z,-1.18
2022-12-18T00:11:21.609Z,-1.12
2022-12-18T00:13:49.011Z,-1.03
2022-12-18T00:16:19.480Z,-1.46
2022-12-18T00:18:47.494Z,-1.80
2022-12-18T00:21:14.860Z,-1.92
2022-12-18T00:23:43.424Z,-1.67
2022-12-18T00:26:16.189Z,-1.88
2022-12-18T00:28:44.121Z,-1.85
2022-12-18T00:31:16.049Z,-1.95
2022-12-18T00:33:43.474Z,-1.77
2022-12-18T00:36:12.631Z,-2.04
2022-12-18T00:38:40.477Z,-1.46
2022-12-18T00:41:10.140Z,-1.65
2022-12-18T00:43:38.385Z,-2.23
2022-12-18T00:46:06.434Z,-2.30
2022-12-18T00:48:33.912Z,-2.14
2022-12-18T00:51:01.246Z,-1.81
2022-12-18T00:53:28.908Z,-1.56
2022-12-18T00:55:56.599Z,-2.09
2022-12-18T00:58:23.935Z,-1.94
2022-12-18T01:00:51.764Z,-1.95
2022-12-18T01:03:19.199Z,-2.01
2022-12-18T01:05:46.864Z,-2.00
2022-12-18T01:08:14.572Z,-1.91
2022-12-18T01:10:44.030Z,-1.63
2022-12-18T01:13:11.386Z,-1.36
2022-12-18T01:15:39.069Z,-1.09
2022-12-18T01:18:06.830Z,-1.64
2022-12-18T01:20:34.151Z,-1.13
2022-12-18T01:23:01.747Z,-1.01
2022-12-18T01:25:29.153Z,-1.58
2022-12-18T01:27:56.523Z,-1.48
2022-12-18T01:30:26.381Z,-1.57
2022-12-18T01:32:53.969Z,-1.05
2022-12-18T01:35:21.310Z,-1.02
2022-12-18T01:37:49.053Z,-0.84
2022-12-18T01:40:16.507Z,-0.61
2022-12-18T01:42:43.839Z,-0.74
2022-12-18T01:45:12.258Z,-1.05
2022-12-18T01:48:02.682Z,-0.82
2022-12-18T01:50:36.191Z,-0.41
2022-12-18T01:53:23.704Z,-1.04
2022-12-18T01:55:53.071Z,-1.16
2022-12-18T01:58:23.187Z,-1.55
2022-12-18T02:00:50.898Z,-1.05
2022-12-18T02:03:20.694Z,-1.36
2022-12-18T02:06:22.049Z,-1.31
2022-12-18T02:09:14.993Z,-1.65
2022-12-18T02:12:14.793Z,-0.90
2022-12-18T02:14:44.910Z,-1.36
2022-12-18T02:17:14.179Z,-1.50
2022-12-18T02:20:06.357Z,-1.65
2022-12-18T02:23:00.399Z,-1.75
2022-12-18T02:25:46.597Z,-1.90
2022-12-18T02:28:16.349Z,-1.41
2022-12-18T02:30:44.148Z,-1.60
2022-12-18T02:33:11.681Z,-1.23
2022-12-18T02:35:39.357Z,-1.33
2022-12-18T02:38:06.784Z,-1.56
2022-12-18T02:40:34.879Z,-1.22
2022-12-18T02:43:10.558Z,-1.34
2022-12-18T02:45:47.343Z,-1.10
2022-12-18T02:48:15.763Z,-1.07
2022-12-18T02:50:47.083Z,-1.50
2022-12-18T02:53:37.340Z,-1.70
2022-12-18T02:56:16.644Z,-1.08
2022-12-18T02:59:01.455Z,-0.85
2022-12-18T03:01:34.118Z,-0.77
2022-12-18T03:04:10.703Z,-0.71
2022-12-18T03:06:42.639Z,-1.68
2022-12-18T03:09:22.161Z,-1.68
2022-12-18T03:12:21.966Z,-1.13
2022-12-18T03:15:08.056Z,-0.99
2022-12-18T03:17:36.456Z,-1.47
2022-12-18T03:20:10.560Z,-1.59
2022-12-18T03:22:38.026Z,-1.19
2022-12-18T03:25:07.479Z,-1.57
2022-12-18T03:27:35.433Z,-1.13
2022-12-18T03:30:08.350Z,-1.09
2022-12-18T03:33:00.004Z,-1.27
2022-12-18T03:35:29.869Z,-1.12
2022-12-18T03:37:57.650Z,-1.09
2022-12-18T03:40:30.521Z,-1.21
2022-12-18T03:43:04.372Z,-0.74
2022-12-18T03:45:39.656Z,-1.42
2022-12-18T03:48:09.253Z,-1.19
2022-12-18T03:50:39.537Z,-1.18
2022-12-18T03:53:38.185Z,-0.68
2022-12-18T03:56:06.346Z,-1.13
2022-12-18T03:58:34.202Z,-1.47
2022-12-18T04:01:03.445Z,-1.10
2022-12-18T04:03:31.267Z,-1.12
2022-12-18T04:05:58.633Z,-0.74
2022-12-18T04:08:28.337Z,-0.71
2022-12-18T04:10:56.666Z,-0.86
2022-12-18T04:13:44.344Z,-1.43
2022-12-18T04:16:13.759Z,-1.18
2022-12-18T04:18:41.318Z,-1.24
2022-12-18T04:21:09.492Z,-0.93
2022-12-18T04:23:37.584Z,-0.82
2022-12-18T04:26:05.332Z,-0.38
2022-12-18T04:28:34.031Z,-0.06
2022-12-18T04:31:02.007Z,0.01
2022-12-18T04:33:29.359Z,-0.16
2022-12-18T04:35:57.146Z,-0.84
2022-12-18T04:38:25.870Z,-0.85
2022-12-18T04:40:55.399Z,-0.38
2022-12-18T04:43:23.066Z,-0.09
2022-12-18T04:45:50.793Z,-0.26
2022-12-18T04:48:18.209Z,-0.13
2022-12-18T04:50:45.516Z,-0.67
2022-12-18T04:53:13.197Z,-0.90
2022-12-18T04:55:40.535Z,-0.54
2022-12-18T04:58:07.880Z,-0.47
2022-12-18T05:00:35.547Z,0.04
2022-12-18T05:03:03.465Z,-0.06
2022-12-18T05:05:31.065Z,-0.13
2022-12-18T05:07:58.686Z,0.06
2022-12-18T05:10:26.160Z,-0.91
2022-12-18T05:13:01.400Z,-0.23
2022-12-18T05:15:30.404Z,-0.99
2022-12-18T05:17:58.569Z,-0.56
2022-12-18T05:20:26.270Z,-0.45
2022-12-18T05:22:54.126Z,-0.69
2022-12-18T05:25:21.495Z,-0.45
2022-12-18T05:27:48.845Z,-0.05
2022-12-18T05:30:16.509Z,-0.51
2022-12-18T05:32:43.854Z,-0.16
2022-12-18T05:35:11.496Z,0.18
2022-12-18T05:37:42.958Z,0.32
2022-12-18T05:40:11.578Z,-0.33
2022-12-18T05:42:39.203Z,0.18
2022-12-18T05:45:06.986Z,0.22
2022-12-18T05:47:34.431Z,0.00
2022-12-18T05:50:02.107Z,0.14
2022-12-18T05:52:29.480Z,0.15
2022-12-18T05:54:56.853Z,0.32
2022-12-18T05:57:24.437Z,0.26
2022-12-18T05:59:51.768Z,0.24
2022-12-18T06:02:19.203Z,0.36
2022-12-18T06:04:46.893Z,0.48
2022-12-18T06:07:14.200Z,0.40
2022-12-18T06:09:41.622Z,0.50
2022-12-18T06:12:09.374Z,0.48
2022-12-18T06:14:36.719Z,-0.01
2022-12-18T06:17:04.082Z,0.19
2022-12-18T06:19:31.661Z,0.11
2022-12-18T06:21:59.906Z,0.26
2022-12-18T06:24:27.451Z,0.36
2022-12-18T06:26:55.297Z,0.37
2022-12-18T06:29:22.696Z,0.21
2022-12-18T06:31:50.287Z,0.33
2022-12-18T06:34:18.066Z,0.38
2022-12-18T06:36:45.385Z,0.12
2022-12-18T06:39:12.752Z,0.37
2022-12-18T06:41:40.363Z,0.10
2022-12-18T06:44:07.782Z,0.11
2022-12-18T06:46:35.255Z,0.23
2022-12-18T06:49:02.868Z,0.17
2022-12-18T06:51:30.175Z,0.10
2022-12-18T06:53:57.719Z,0.40
2022-12-18T06:56:25.348Z,0.40
2022-12-18T06:58:52.811Z,0.22
2022-12-18T07:01:20.295Z,0.01
2022-12-18T07:03:48.081Z,0.07
2022-12-18T07:06:16.552Z,0.24
2022-12-18T07:08:44.246Z,-0.15
2022-12-18T07:11:11.906Z,-0.31
2022-12-18T07:13:39.743Z,-0.32
2022-12-18T07:16:16.046Z,0.06
2022-12-18T07:18:46.295Z,0.25
2022-12-18T07:21:16.594Z,0.37
2022-12-18T07:23:44.549Z,0.22
2022-12-18T07:26:13.171Z,0.18
2022-12-18T07:28:41.005Z,0.25
2022-12-18T07:31:10.112Z,-0.24
2022-12-18T07:33:39.883Z,0.04
2022-12-18T07:36:08.130Z,-0.25
2022-12-18T07:38:35.935Z,0.03
2022-12-18T07:41:11.056Z,0.27
2022-12-18T07:43:39.060Z,-0.02
2022-12-18T07:46:07.417Z,0.23
2022-12-18T07:48:35.062Z,-0.37
2022-12-18T07:51:03.605Z,-0.40
2022-12-18T07:53:31.376Z,0.22
2022-12-18T07:56:25.541Z,0.14
2022-12-18T07:58:49.923Z,-0.24
2022-12-18T08:01:17.450Z,0.14
2022-12-18T08:03:45.310Z,-0.40
2022-12-18T08:06:12.709Z,-0.13
2022-12-18T08:08:42.347Z,0.16
2022-12-18T08:11:10.023Z,-0.22
2022-12-18T08:13:37.525Z,0.40
2022-12-18T08:16:07.030Z,0.62
2022-12-18T08:18:35.439Z,0.63
2022-12-18T08:21:16.178Z,0.95
2022-12-18T08:23:44.135Z,0.99
2022-12-18T08:26:12.167Z,0.90
2022-12-18T08:28:39.560Z,0.43
2022-12-18T08:31:07.466Z,0.76
2022-12-18T08:33:35.816Z,-0.29
2022-12-18T08:36:06.141Z,0.34
2022-12-18T08:38:34.072Z,0.30
2022-12-18T08:41:06.571Z,0.31
2022-12-18T08:43:52.759Z,0.82
2022-12-18T08:46:20.961Z,0.60
2022-12-18T08:48:48.664Z,0.52
2022-12-18T08:51:17.069Z,0.02
2022-12-18T08:53:45.508Z,0.58
2022-12-18T08:56:13.382Z,-0.27
2022-12-18T08:58:40.980Z,0.35
2022-12-18T09:01:12.852Z,0.69
2022-12-18T09:03:41.033Z,0.49
2022-12-18T09:06:08.759Z,0.75
2022-12-18T09:08:37.799Z,0.85
2022-12-18T09:11:05.903Z,0.89
2022-12-18T09:13:33.314Z,0.59
2022-12-18T09:16:00.616Z,0.62
2022-12-18T09:18:28.344Z,0.28
2022-12-18T09:20:55.666Z,0.27
2022-12-18T09:23:23.154Z,0.46
2022-12-18T09:25:50.772Z,0.89
2022-12-18T09:28:18.810Z,0.97
2022-12-18T09:30:49.985Z,0.40
2022-12-18T09:33:18.090Z,0.94
2022-12-18T09:35:45.740Z,0.39
2022-12-18T09:38:15.146Z,0.77
2022-12-18T09:40:57.270Z,0.71
2022-12-18T09:43:37.060Z,0.14
2022-12-18T09:46:07.441Z,0.65
2022-12-18T09:48:46.646Z,1.08
2022-12-18T09:51:18.430Z,1.03
2022-12-18T09:53:48.567Z,0.52
2022-12-18T09:56:20.493Z,0.73
2022-12-18T09:59:01.854Z,0.53
2022-12-18T10:01:38.898Z,0.93
2022-12-18T10:04:11.055Z,0.50
2022-12-18T10:06:55.103Z,0.86
2022-12-18T10:09:38.452Z,1.04
2022-12-18T10:12:18.838Z,1.06
2022-12-18T10:15:11.861Z,1.10
2022-12-18T10:17:47.216Z,1.02
2022-12-18T10:20:17.709Z,0.50
2022-12-18T10:23:26.483Z,0.92
2022-12-18T10:25:54.084Z,1.04
2022-12-18T10:28:21.597Z,0.62
2022-12-18T10:30:48.975Z,1.16
2022-12-18T10:33:28.438Z,1.31
2022-12-18T10:35:55.900Z,1.41
2022-12-18T10:38:25.632Z,1.85
2022-12-18T10:41:06.609Z,1.55
2022-12-18T10:43:41.783Z,1.47
2022-12-18T10:46:09.113Z,1.02
2022-12-18T10:48:40.179Z,1.62
2022-12-18T10:51:10.721Z,1.50
2022-12-18T10:53:41.352Z,1.71
2022-12-18T10:56:08.729Z,1.59
2022-12-18T10:58:37.190Z,1.93
2022-12-18T11:01:13.004Z,1.98
2022-12-18T11:03:41.426Z,2.16
2022-12-18T11:06:20.205Z,1.53
2022-12-18T11:09:01.923Z,1.18
2022-12-18T11:11:30.115Z,1.67
2022-12-18T11:14:05.603Z,1.73
2022-12-18T11:17:03.046Z,1.53
2022-12-18T11:19:42.051Z,1.78
2022-12-18T11:22:25.413Z,1.70
2022-12-18T11:25:29.985Z,2.17
2022-12-18T11:27:56.447Z,1.92
2022-12-18T11:30:29.332Z,1.53
2022-12-18T11:33:26.378Z,2.03
2022-12-18T11:35:55.059Z,1.94
2022-12-18T11:38:42.513Z,2.20
2022-12-18T11:41:49.266Z,2.48
2022-12-18T11:44:22.403Z,2.59
2022-12-18T11:47:01.902Z,2.87
2022-12-18T11:49:36.243Z,2.67
2022-12-18T11:52:25.387Z,2.35
2022-12-18T11:54:54.266Z,2.57
2022-12-18T11:57:42.327Z,2.42
2022-12-18T12:00:20.667Z,2.10
2022-12-18T12:03:10.639Z,2.83
2022-12-18T12:05:56.159Z,2.35
2022-12-18T12:08:35.774Z,2.74
2022-12-18T12:11:21.190Z,3.33
2022-12-18T12:14:17.711Z,2.98
2022-12-18T12:17:00.594Z,3.24
2022-12-18T12:20:09.728Z,3.25
2022-12-18T12:22:51.213Z,3.24
2022-12-18T12:25:27.928Z,3.15
2022-12-18T12:28:04.380Z,3.12
2022-12-18T12:30:34.876Z,3.61
2022-12-18T12:33:27.238Z,3.83
2022-12-18T12:36:27.307Z,3.90
2022-12-18T12:38:59.216Z,3.54
2022-12-18T12:41:47.733Z,3.67
2022-12-18T12:44:18.272Z,4.02
2022-12-18T12:46:46.306Z,4.08
2022-12-18T12:49:16.536Z,4.08
2022-12-18T12:51:57.981Z,3.77
2022-12-18T12:54:25.925Z,3.44
2022-12-18T12:57:04.979Z,3.67
2022-12-18T12:59:39.507Z,4.08
2022-12-18T13:02:33.578Z,3.81
2022-12-18T13:05:24.565Z,3.24
2022-12-18T13:08:00.416Z,3.84
2022-12-18T13:10:33.469Z,3.59
2022-12-18T13:13:11.097Z,3.53
2022-12-18T13:15:46.233Z,3.94
2022-12-18T13:18:21.619Z,3.53
2022-12-18T13:20:58.507Z,3.78
2022-12-18T13:23:34.190Z,3.83
2022-12-18T13:26:28.877Z,3.84
2022-12-18T13:28:57.860Z,3.86
2022-12-18T13:31:40.704Z,3.95
2022-12-18T13:34:26.869Z,4.00
2022-12-18T13:36:56.561Z,4.06
2022-12-18T13:39:30.301Z,4.04
2022-12-18T13:42:06.971Z,4.02
2022-12-18T13:44:41.418Z,4.04
2022-12-18T13:47:38.663Z,3.96
2022-12-18T13:50:29.855Z,4.02
2022-12-18T13:53:04.113Z,3.97
2022-12-18T13:55:31.455Z,3.81
2022-12-18T13:58:08.135Z,3.82
2022-12-18T14:00:35.996Z,3.74
2022-12-18T14:03:21.737Z,3.68
2022-12-18T14:06:15.705Z,3.72
2022-12-18T14:08:45.293Z,3.86
2022-12-18T14:11:23.423Z,3.50
2022-12-18T14:13:53.083Z,3.38
2022-12-18T14:16:20.902Z,3.44
2022-12-18T14:18:56.529Z,3.47
2022-12-18T14:21:30.427Z,3.31
2022-12-18T14:24:10.185Z,3.51
2022-12-18T14:26:37.776Z,3.31
2022-12-18T14:29:30.404Z,3.44
2022-12-18T14:32:19.245Z,3.50
2022-12-18T14:34:47.048Z,3.31
2022-12-18T14:37:16.212Z,3.38
2022-12-18T14:40:01.274Z,3.30
2022-12-18T14:42:30.954Z,3.19
2022-12-18T14:45:41.754Z,3.28
2022-12-18T14:48:23.657Z,2.88
2022-12-18T14:50:59.996Z,2.93
2022-12-18T14:53:52.409Z,3.02
2022-12-18T14:56:24.855Z,3.02
2022-12-18T14:58:57.643Z,2.98
2022-12-18T15:01:33.620Z,2.98
2022-12-18T15:04:01.608Z,2.98
2022-12-18T15:06:34.149Z,2.88
2022-12-18T15:09:04.104Z,2.83
2022-12-18T15:11:37.473Z,2.73
2022-12-18T15:14:24.963Z,2.61
2022-12-18T15:16:54.554Z,2.51
2022-12-18T15:19:52.064Z,2.65
2022-12-18T15:22:27.853Z,2.73
2022-12-18T15:24:56.263Z,2.70
2022-12-18T15:27:31.137Z,2.66
2022-12-18T15:30:07.737Z,2.64
2022-12-18T15:32:35.840Z,2.60
2022-12-18T15:35:12.464Z,2.44
2022-12-18T15:37:43.518Z,2.51
2022-12-18T15:40:19.197Z,2.30
2022-12-18T15:43:06.409Z,2.47
2022-12-18T15:45:34.047Z,2.47
2022-12-18T15:48:08.119Z,2.45
2022-12-18T15:50:35.828Z,2.53
2022-12-18T15:53:03.149Z,2.28
2022-12-18T15:55:59.315Z,2.35
2022-12-18T15:58:28.607Z,2.40
2022-12-18T16:00:56.380Z,2.35
2022-12-18T16:03:24.024Z,2.32
2022-12-18T16:05:51.954Z,2.34
2022-12-18T16:08:19.323Z,2.34
2022-12-18T16:10:47.031Z,2.28
2022-12-18T16:13:16.858Z,2.12
2022-12-18T16:15:44.289Z,2.06
2022-12-18T16:18:11.962Z,1.92
2022-12-18T16:20:39.419Z,1.80
2022-12-18T16:23:06.776Z,1.87
2022-12-18T16:25:34.778Z,1.84
2022-12-18T16:28:02.266Z,2.03
2022-12-18T16:30:35.442Z,1.92
2022-12-18T16:33:07.444Z,1.92
2022-12-18T16:35:35.268Z,2.07
2022-12-18T16:38:02.617Z,1.96
2022-12-18T16:40:31.423Z,1.81
2022-12-18T16:42:58.755Z,1.81
2022-12-18T16:45:34.013Z,1.87
2022-12-18T16:48:01.770Z,1.91
2022-12-18T16:50:29.075Z,1.92
2022-12-18T16:52:56.385Z,1.96
2022-12-18T16:55:24.033Z,1.92
2022-12-18T16:57:51.503Z,1.77
2022-12-18T17:00:18.948Z,1.59
2022-12-18T17:02:46.987Z,1.73
2022-12-18T17:05:14.598Z,1.74
2022-12-18T17:07:41.907Z,1.79
2022-12-18T17:10:10.110Z,1.49
2022-12-18T17:12:37.464Z,1.65
2022-12-18T17:15:05.260Z,1.73
2022-12-18T17:17:32.924Z,1.55
2022-12-18T17:20:00.820Z,1.60
2022-12-18T17:22:28.150Z,1.50
2022-12-18T17:24:55.759Z,1.53
2022-12-18T17:27:23.220Z,1.70
2022-12-18T17:29:50.570Z,1.42
2022-12-18T17:32:18.353Z,1.52
2022-12-18T17:34:45.722Z,1.33
2022-12-18T17:37:13.108Z,1.12
2022-12-18T17:39:40.725Z,1.05
2022-12-18T17:42:10.637Z,1.22
2022-12-18T17:44:43.326Z,1.41
2022-12-18T17:47:12.219Z,1.33
2022-12-18T17:49:39.652Z,0.92
2022-12-18T17:52:08.070Z,1.26
2022-12-18T17:54:39.364Z,1.24
2022-12-18T17:57:06.708Z,1.35
2022-12-18T17:59:34.414Z,1.21
2022-12-18T18:02:01.813Z,1.09
2022-12-18T18:04:30.482Z,1.25
2022-12-18T18:06:57.937Z,1.20
2022-12-18T18:09:25.242Z,1.00
2022-12-18T18:12:11.494Z,1.32
2022-12-18T18:14:38.928Z,1.38
2022-12-18T18:17:07.064Z,1.03
2022-12-18T18:19:34.459Z,1.10
2022-12-18T18:22:02.977Z,1.17
2022-12-18T18:24:31.241Z,1.21
2022-12-18T18:27:01.404Z,1.30
2022-12-18T18:29:30.511Z,1.14
2022-12-18T18:31:58.656Z,1.12
2022-12-18T18:34:28.144Z,1.10
2022-12-18T18:36:55.544Z,0.97
2022-12-18T18:39:23.156Z,0.95
2022-12-18T18:41:50.562Z,1.17
2022-12-18T18:44:18.495Z,1.22
2022-12-18T18:46:46.206Z,1.24
2022-12-18T18:49:14.308Z,1.26
2022-12-18T18:51:42.006Z,0.95
2022-12-18T18:54:09.865Z,0.86
2022-12-18T18:57:04.124Z,1.11
2022-12-18T18:59:31.470Z,1.05
2022-12-18T19:02:00.754Z,1.03
2022-12-18T19:04:33.439Z,1.13
2022-12-18T19:07:01.008Z,1.12
2022-12-18T19:09:28.604Z,1.15
2022-12-18T19:12:15.253Z,1.11
2022-12-18T19:14:43.048Z,1.10
2022-12-18T19:17:10.722Z,1.17
2022-12-18T19:19:38.395Z,1.01
2022-12-18T19:22:06.828Z,1.18
2022-12-18T19:24:34.556Z,1.08
2022-12-18T19:27:01.938Z,0.86
2022-12-18T19:29:29.416Z,1.00
2022-12-18T19:31:57.051Z,0.86
2022-12-18T19:34:24.465Z,0.76
2022-12-18T19:36:56.476Z,0.65
2022-12-18T19:39:27.000Z,0.80
2022-12-18T19:41:54.622Z,0.86
2022-12-18T19:44:22.201Z,0.85
2022-12-18T19:46:50.397Z,0.77
2022-12-18T19:49:18.296Z,0.35
2022-12-18T19:51:45.828Z,0.62
2022-12-18T19:54:17.076Z,0.64
2022-12-18T19:56:45.337Z,0.68
2022-12-18T19:59:12.724Z,0.72
2022-12-18T20:01:40.542Z,0.66
2022-12-18T20:04:08.493Z,0.44
2022-12-18T20:06:49.732Z,0.35
2022-12-18T20:09:17.483Z,0.39
2022-12-18T20:11:45.316Z,0.66
2022-12-18T20:14:13.157Z,0.60
2022-12-18T20:16:40.965Z,0.70
2022-12-18T20:19:08.779Z,0.75
2022-12-18T20:21:36.992Z,0.72
2022-12-18T20:24:04.829Z,0.73
2022-12-18T20:26:32.136Z,0.40
2022-12-18T20:28:59.555Z,0.48
2022-12-18T20:31:27.335Z,0.71
2022-12-18T20:33:59.638Z,0.23
2022-12-18T20:36:29.539Z,0.48
2022-12-18T20:39:00.493Z,0.34
2022-12-18T20:41:37.205Z,-0.13
2022-12-18T20:44:06.165Z,0.29
2022-12-18T20:46:38.098Z,0.45
2022-12-18T20:49:05.463Z,0.48
2022-12-18T20:51:33.489Z,0.45
2022-12-18T20:54:01.158Z,0.41
2022-12-18T20:56:30.719Z,0.60
2022-12-18T20:58:58.802Z,-0.06
2022-12-18T21:01:27.794Z,-0.03
2022-12-18T21:03:55.247Z,0.12
2022-12-18T21:06:23.241Z,0.30
2022-12-18T21:08:51.076Z,0.22
2022-12-18T21:11:40.173Z,0.31
2022-12-18T21:14:22.014Z,0.52
2022-12-18T21:16:49.545Z,0.44
2022-12-18T21:19:18.707Z,0.32
2022-12-18T21:21:46.130Z,0.49
2022-12-18T21:24:13.675Z,0.45
2022-12-18T21:26:46.032Z,0.49
2022-12-18T21:29:19.370Z,0.46
2022-12-18T21:31:47.412Z,0.25
2022-12-18T21:34:22.566Z,0.55
2022-12-18T21:36:50.223Z,0.47
2022-12-18T21:39:17.710Z,0.44
2022-12-18T21:42:05.985Z,0.58
2022-12-18T21:44:37.315Z,0.35
2022-12-18T21:47:22.757Z,0.45
2022-12-18T21:49:52.641Z,0.46
2022-12-18T21:52:26.238Z,0.40
2022-12-18T21:55:07.978Z,0.45
2022-12-18T21:57:39.757Z,0.49
2022-12-18T22:00:08.146Z,0.62
2022-12-18T22:02:39.521Z,0.59
2022-12-18T22:05:07.926Z,0.36
2022-12-18T22:07:35.402Z,0.34
2022-12-18T22:10:02.739Z,0.12
2022-12-18T22:12:43.118Z,-0.22
2022-12-18T22:15:11.449Z,0.08
2022-12-18T22:17:40.800Z,0.37
2022-12-18T22:20:09.353Z,0.03
2022-12-18T22:22:36.676Z,0.29
2022-12-18T22:25:04.730Z,0.24
2022-12-18T22:27:32.074Z,0.26
2022-12-18T22:30:05.594Z,0.36
2022-12-18T22:32:33.701Z,0.12
2022-12-18T22:35:06.283Z,-0.06
2022-12-18T22:37:37.074Z,0.12
2022-12-18T22:40:06.105Z,-0.04
2022-12-18T22:42:34.757Z,-0.53
2022-12-18T22:45:02.356Z,-0.21
2022-12-18T22:47:30.935Z,-0.12
2022-12-18T22:49:58.521Z,-0.12
2022-12-18T22:52:26.235Z,-0.10
2022-12-18T22:54:54.201Z,-0.07
2022-12-18T22:57:22.395Z,0.02
2022-12-18T22:59:50.588Z,-0.06
2022-12-18T23:02:18.930Z,-0.12
2022-12-18T23:04:47.752Z,-0.11
2022-12-18T23:07:16.340Z,-0.27
2022-12-18T23:09:44.156Z,-0.16
2022-12-18T23:12:19.280Z,-0.03
2022-12-18T23:14:47.345Z,-0.12
2022-12-18T23:17:14.730Z,0.08
2022-12-18T23:19:48.667Z,-0.17
2022-12-18T23:22:17.218Z,-0.12
2022-12-18T23:24:44.589Z,-0.16
2022-12-18T23:27:12.371Z,0.04
2022-12-18T23:29:40.505Z,-0.16
2022-12-18T23:32:07.970Z,-0.03
2022-12-18T23:34:35.438Z,0.16
2022-12-18T23:37:03.766Z,-0.35
2022-12-18T23:39:31.377Z,-0.03
2022-12-18T23:41:58.757Z,-0.03
2022-12-18T23:44:26.441Z,-0.15
2022-12-18T23:46:53.826Z,-0.14
2022-12-18T23:49:21.168Z,-0.19
2022-12-18T23:51:49.080Z,-0.14
2022-12-18T23:54:16.400Z,-0.19
2022-12-18T23:56:43.765Z,-0.21
2022-12-18T23:59:11.387Z,-0.33
